createdAt,value
2023-05-29T00:01:41.995Z,8.59
2023-05-29T00:04:13.876Z,8.54
2023-05-29T00:06:45.547Z,8.52
2023-05-29T00:09:16.339Z,8.53
2023-05-29T00:11:51.765Z,8.51
2023-05-29T00:14:25.031Z,8.48
2023-05-29T00:16:57.904Z,8.45
2023-05-29T00:19:29.882Z,8.45
2023-05-29T00:22:01.407Z,8.45
2023-05-29T00:24:32.984Z,8.45
2023-05-29T00:27:03.248Z,8.44
2023-05-29T00:29:34.825Z,8.42
2023-05-29T00:32:08.056Z,8.39
2023-05-29T00:34:39.828Z,8.35
2023-05-29T00:37:09.981Z,8.33
2023-05-29T00:39:41.633Z,8.36
2023-05-29T00:42:13.225Z,8.37
2023-05-29T00:44:43.329Z,8.37
2023-05-29T00:47:15.795Z,8.34
2023-05-29T00:49:47.941Z,8.31
2023-05-29T00:52:19.985Z,8.28
2023-05-29T00:54:51.667Z,8.26
2023-05-29T00:57:22.555Z,8.24
2023-05-29T00:59:54.167Z,8.22
2023-05-29T01:02:25.020Z,8.21
2023-05-29T01:04:56.749Z,8.17
2023-05-29T01:07:28.510Z,8.14
2023-05-29T01:10:00.068Z,8.12
2023-05-29T01:12:42.663Z,8.08
2023-05-29T01:15:28.200Z,8.03
2023-05-29T01:18:13.034Z,8.01
2023-05-29T01:20:49.720Z,7.98
2023-05-29T01:23:38.620Z,7.95
2023-05-29T01:26:27.753Z,7.98
2023-05-29T01:29:02.654Z,8.03
2023-05-29T01:31:35.192Z,8.06
2023-05-29T01:34:06.825Z,8.08
2023-05-29T01:36:37.311Z,8.11
2023-05-29T01:39:10.204Z,8.12
2023-05-29T01:41:42.787Z,8.12
2023-05-29T01:44:15.229Z,8.08
2023-05-29T01:46:47.542Z,8.03
2023-05-29T01:49:20.217Z,8.00
2023-05-29T01:51:51.834Z,7.97
2023-05-29T01:54:23.788Z,7.94
2023-05-29T01:56:56.287Z,7.90
2023-05-29T01:59:28.543Z,7.89
2023-05-29T02:02:00.044Z,7.90
2023-05-29T02:04:31.605Z,7.89
2023-05-29T02:07:01.720Z,7.86
2023-05-29T02:09:33.271Z,7.82
2023-05-29T02:12:05.043Z,7.80
2023-05-29T02:14:37.941Z,7.77
2023-05-29T02:17:10.335Z,7.74
2023-05-29T02:19:41.993Z,7.69
2023-05-29T02:22:14.261Z,7.65
2023-05-29T02:24:45.793Z,7.63
2023-05-29T02:27:15.970Z,7.62
2023-05-29T02:29:47.575Z,7.61
2023-05-29T02:32:19.442Z,7.58
2023-05-29T02:34:50.596Z,7.58
2023-05-29T02:37:26.362Z,7.58
2023-05-29T02:39:57.906Z,7.55
2023-05-29T02:42:28.012Z,7.54
2023-05-29T02:44:59.546Z,7.55
2023-05-29T02:47:31.305Z,7.57
2023-05-29T02:50:03.507Z,7.56
2023-05-29T02:52:37.709Z,7.52
2023-05-29T02:55:11.368Z,7.48
2023-05-29T02:57:42.933Z,7.49
2023-05-29T03:00:14.998Z,7.52
2023-05-29T03:02:46.991Z,7.56
2023-05-29T03:05:18.744Z,7.59
2023-05-29T03:07:48.872Z,7.63
2023-05-29T03:10:20.515Z,7.68
2023-05-29T03:12:50.667Z,7.75
2023-05-29T03:15:22.301Z,7.84
2023-05-29T03:17:54.094Z,7.93
2023-05-29T03:20:30.184Z,7.99
2023-05-29T03:23:02.969Z,8.09
2023-05-29T03:25:34.891Z,8.25
2023-05-29T03:28:04.980Z,8.50
2023-05-29T03:30:37.094Z,8.78
2023-05-29T03:33:08.771Z,9.08
2023-05-29T03:36:00.246Z,9.45
2023-05-29T03:38:32.107Z,9.86
2023-05-29T03:41:04.306Z,10.33
2023-05-29T03:43:34.453Z,10.81
2023-05-29T03:46:06.358Z,11.22
2023-05-29T03:48:39.344Z,11.63
2023-05-29T03:51:09.439Z,12.02
2023-05-29T03:53:42.028Z,12.24
2023-05-29T03:56:13.872Z,12.39
2023-05-29T03:58:45.672Z,12.61
2023-05-29T04:01:18.082Z,12.88
2023-05-29T04:03:48.214Z,13.11
2023-05-29T04:06:19.932Z,13.36
2023-05-29T04:08:50.068Z,13.64
2023-05-29T04:11:23.323Z,13.89
2023-05-29T04:13:54.926Z,14.04
2023-05-29T04:16:26.576Z,14.22
2023-05-29T04:18:58.260Z,14.53
2023-05-29T04:21:33.709Z,14.87
2023-05-29T04:24:06.601Z,15.13
2023-05-29T04:26:42.131Z,15.29
2023-05-29T04:29:15.067Z,15.50
2023-05-29T04:31:48.233Z,15.74
2023-05-29T04:34:21.214Z,15.98
2023-05-29T04:36:52.866Z,16.22
2023-05-29T04:39:24.393Z,16.57
2023-05-29T04:41:59.685Z,16.90
2023-05-29T04:44:34.084Z,17.16
2023-05-29T04:47:07.479Z,17.45
2023-05-29T04:49:40.118Z,17.83
2023-05-29T04:52:13.037Z,18.22
2023-05-29T04:54:44.994Z,18.66
2023-05-29T04:57:18.160Z,19.15
2023-05-29T04:59:49.692Z,19.63
2023-05-29T05:02:21.270Z,20.13
2023-05-29T05:04:52.888Z,20.63
2023-05-29T05:07:24.542Z,21.04
2023-05-29T05:09:56.688Z,21.33
2023-05-29T05:12:31.156Z,21.53
2023-05-29T05:15:02.893Z,21.81
2023-05-29T05:17:35.186Z,22.17
2023-05-29T05:20:09.661Z,22.64
2023-05-29T05:22:41.892Z,23.13
2023-05-29T05:25:13.900Z,23.69
2023-05-29T05:27:46.042Z,24.21
2023-05-29T05:30:18.489Z,24.60
2023-05-29T05:32:50.297Z,24.89
2023-05-29T05:35:22.495Z,25.20
2023-05-29T05:37:54.208Z,25.62
2023-05-29T05:40:27.701Z,26.08
2023-05-29T05:43:04.450Z,26.55
2023-05-29T05:45:56.133Z,26.91
2023-05-29T05:48:28.142Z,27.23
2023-05-29T05:51:00.036Z,27.52
2023-05-29T05:53:31.793Z,27.80
2023-05-29T05:56:03.437Z,28.15
2023-05-29T05:58:35.192Z,28.52
2023-05-29T06:01:08.625Z,28.74
2023-05-29T06:03:40.603Z,28.93
2023-05-29T06:06:14.067Z,29.18
2023-05-29T06:08:48.746Z,29.50
2023-05-29T06:11:20.896Z,29.52
2023-05-29T06:13:53.625Z,29.09
2023-05-29T06:16:28.902Z,28.72
2023-05-29T06:19:00.742Z,28.53
2023-05-29T06:21:33.809Z,28.17
2023-05-29T06:24:07.882Z,27.77
2023-05-29T06:26:39.620Z,27.25
2023-05-29T06:29:11.932Z,26.69
2023-05-29T06:31:44.865Z,26.24
2023-05-29T06:34:17.492Z,26.01
2023-05-29T06:36:49.109Z,25.91
2023-05-29T06:39:21.155Z,25.85
2023-05-29T06:41:52.778Z,25.75
2023-05-29T06:44:24.268Z,25.87
2023-05-29T06:46:55.887Z,26.10
2023-05-29T06:49:27.554Z,26.16
2023-05-29T06:51:59.051Z,25.87
2023-05-29T06:54:50.566Z,25.93
2023-05-29T06:57:22.230Z,26.21
2023-05-29T06:59:53.966Z,26.11
2023-05-29T07:02:25.646Z,25.96
2023-05-29T07:04:59.851Z,25.91
2023-05-29T07:07:31.840Z,25.93
2023-05-29T07:10:03.540Z,25.91
2023-05-29T07:12:35.334Z,25.86
2023-05-29T07:15:09.999Z,25.89
2023-05-29T07:17:45.705Z,25.94
2023-05-29T07:20:24.434Z,25.79
2023-05-29T07:22:56.085Z,25.14
2023-05-29T07:25:27.831Z,24.41
2023-05-29T07:28:10.678Z,23.92
2023-05-29T07:30:52.313Z,23.67
2023-05-29T07:33:23.943Z,23.50
2023-05-29T07:35:59.913Z,23.09
2023-05-29T07:38:33.021Z,22.62
2023-05-29T07:41:04.847Z,22.24
2023-05-29T07:43:38.542Z,22.03
2023-05-29T07:46:11.968Z,21.87
2023-05-29T07:48:46.936Z,21.73
2023-05-29T07:51:18.717Z,21.62
2023-05-29T07:53:51.645Z,21.51
2023-05-29T07:56:23.540Z,21.52
2023-05-29T07:58:55.960Z,21.50
2023-05-29T08:01:28.223Z,21.44
2023-05-29T08:04:00.317Z,21.37
2023-05-29T08:06:35.775Z,21.30
2023-05-29T08:09:07.801Z,21.29
2023-05-29T08:11:39.577Z,21.32
2023-05-29T08:14:11.124Z,21.34
2023-05-29T08:16:44.307Z,21.28
2023-05-29T08:19:16.406Z,21.27
2023-05-29T08:21:48.116Z,21.37
2023-05-29T08:24:21.133Z,21.38
2023-05-29T08:26:53.009Z,21.32
2023-05-29T08:29:24.718Z,21.25
2023-05-29T08:31:56.394Z,21.19
2023-05-29T08:34:28.094Z,21.21
2023-05-29T08:36:59.619Z,21.21
2023-05-29T08:39:31.245Z,21.10
2023-05-29T08:42:09.520Z,21.16
2023-05-29T08:44:42.887Z,21.34
2023-05-29T08:47:19.278Z,21.46
2023-05-29T08:49:54.952Z,21.52
2023-05-29T08:52:27.806Z,21.61
2023-05-29T08:55:01.606Z,21.74
2023-05-29T08:57:34.635Z,21.85
2023-05-29T09:00:10.827Z,21.93
2023-05-29T09:02:42.635Z,21.97
2023-05-29T09:05:15.891Z,22.00
2023-05-29T09:07:48.094Z,22.01
2023-05-29T09:10:19.850Z,22.04
2023-05-29T09:12:52.407Z,22.08
2023-05-29T09:15:25.857Z,21.98
2023-05-29T09:17:59.321Z,21.80
2023-05-29T09:20:31.370Z,21.78
2023-05-29T09:23:05.426Z,21.70
2023-05-29T09:25:41.386Z,21.60
2023-05-29T09:28:14.177Z,21.66
2023-05-29T09:30:48.531Z,21.71
2023-05-29T09:33:22.107Z,21.77
2023-05-29T09:35:54.700Z,21.82
2023-05-29T09:38:38.427Z,21.99
2023-05-29T09:41:24.799Z,22.25
2023-05-29T09:43:57.228Z,22.39
2023-05-29T09:46:29.717Z,22.45
2023-05-29T09:49:05.050Z,22.34
2023-05-29T09:51:37.728Z,22.22
2023-05-29T09:54:19.596Z,22.24
2023-05-29T09:56:52.412Z,22.20
2023-05-29T09:59:27.230Z,22.20
2023-05-29T10:02:05.154Z,22.24
2023-05-29T10:04:38.127Z,22.34
2023-05-29T10:07:14.805Z,22.46
2023-05-29T10:09:51.709Z,22.50
2023-05-29T10:12:24.651Z,22.47
2023-05-29T10:14:59.184Z,22.54
2023-05-29T10:17:36.862Z,22.66
2023-05-29T10:20:12.031Z,22.77
2023-05-29T10:22:48.958Z,22.95
2023-05-29T10:25:22.604Z,23.15
2023-05-29T10:27:55.304Z,23.36
2023-05-29T10:30:36.764Z,23.54
2023-05-29T10:33:23.973Z,23.65
2023-05-29T10:36:03.365Z,23.67
2023-05-29T10:38:35.897Z,23.56
2023-05-29T10:41:40.720Z,23.32
2023-05-29T10:44:39.760Z,23.08
2023-05-29T10:47:13.657Z,23.05
2023-05-29T10:49:54.591Z,23.21
2023-05-29T10:52:26.372Z,23.30
2023-05-29T10:54:59.077Z,23.41
2023-05-29T10:57:37.065Z,23.45
2023-05-29T11:00:24.440Z,23.58
2023-05-29T11:02:56.412Z,23.75
2023-05-29T11:05:28.865Z,23.87
2023-05-29T11:08:04.430Z,23.98
2023-05-29T11:10:59.759Z,24.00
2023-05-29T11:13:38.973Z,23.93
2023-05-29T11:16:38.048Z,23.87
2023-05-29T11:19:12.087Z,23.71
2023-05-29T11:21:58.909Z,23.52
2023-05-29T11:24:31.428Z,23.48
2023-05-29T11:27:07.545Z,23.54
2023-05-29T11:29:40.201Z,23.59
2023-05-29T11:32:18.698Z,23.70
2023-05-29T11:34:54.257Z,23.80
2023-05-29T11:37:27.173Z,23.88
2023-05-29T11:39:59.113Z,23.90
2023-05-29T11:42:31.020Z,23.80
2023-05-29T11:45:18.052Z,23.67
2023-05-29T11:48:00.648Z,23.59
2023-05-29T11:50:38.488Z,23.58
2023-05-29T11:53:11.356Z,23.59
2023-05-29T11:55:47.319Z,23.49
2023-05-29T11:58:19.525Z,23.52
2023-05-29T12:00:53.718Z,23.62
2023-05-29T12:03:26.281Z,23.75
2023-05-29T12:05:58.755Z,23.89
2023-05-29T12:08:31.730Z,24.04
2023-05-29T12:11:04.319Z,24.14
2023-05-29T12:13:43.514Z,24.14
2023-05-29T12:16:16.712Z,24.05
2023-05-29T12:18:49.302Z,24.03
2023-05-29T12:21:22.195Z,24.03
2023-05-29T12:24:03.176Z,24.07
2023-05-29T12:26:48.418Z,24.01
2023-05-29T12:29:20.268Z,23.98
2023-05-29T12:32:02.188Z,23.94
2023-05-29T12:34:40.624Z,23.84
2023-05-29T12:37:15.192Z,23.68
2023-05-29T12:39:47.100Z,23.64
2023-05-29T12:42:20.336Z,23.62
2023-05-29T12:44:52.184Z,23.66
2023-05-29T12:47:28.262Z,23.77
2023-05-29T12:50:00.029Z,23.87
2023-05-29T12:52:31.964Z,23.95
2023-05-29T12:55:04.043Z,23.91
2023-05-29T12:57:36.251Z,23.83
2023-05-29T13:00:12.890Z,23.87
2023-05-29T13:02:44.787Z,23.95
2023-05-29T13:05:19.998Z,23.89
2023-05-29T13:07:52.670Z,23.69
2023-05-29T13:10:26.722Z,23.63
2023-05-29T13:13:00.409Z,23.73
2023-05-29T13:15:34.139Z,23.90
2023-05-29T13:18:07.044Z,24.02
2023-05-29T13:20:41.058Z,23.98
2023-05-29T13:23:13.257Z,23.89
2023-05-29T13:25:45.336Z,23.93
2023-05-29T13:28:17.496Z,24.03
2023-05-29T13:30:50.256Z,24.15
2023-05-29T13:33:22.415Z,24.27
2023-05-29T13:35:55.862Z,24.34
2023-05-29T13:38:29.335Z,24.15
2023-05-29T13:41:02.904Z,24.00
2023-05-29T13:43:43.693Z,23.93
2023-05-29T13:46:17.034Z,23.91
2023-05-29T13:48:48.803Z,23.97
2023-05-29T13:51:20.504Z,24.05
2023-05-29T13:53:52.226Z,24.12
2023-05-29T13:56:24.049Z,24.17
2023-05-29T13:58:55.941Z,24.24
2023-05-29T14:01:28.151Z,24.35
2023-05-29T14:04:00.131Z,24.39
2023-05-29T14:06:33.414Z,24.35
2023-05-29T14:09:05.901Z,24.30
2023-05-29T14:11:38.205Z,24.30
2023-05-29T14:14:11.107Z,24.27
2023-05-29T14:16:42.974Z,24.22
2023-05-29T14:19:15.007Z,24.10
2023-05-29T14:21:47.206Z,24.07
2023-05-29T14:24:19.276Z,24.14
2023-05-29T14:26:51.947Z,24.18
2023-05-29T14:29:23.623Z,24.24
2023-05-29T14:31:55.434Z,24.30
2023-05-29T14:34:27.694Z,24.30
2023-05-29T14:37:01.656Z,24.35
2023-05-29T14:39:34.043Z,24.34
2023-05-29T14:42:07.859Z,24.21
2023-05-29T14:44:43.183Z,24.03
2023-05-29T14:47:15.820Z,23.93
2023-05-29T14:49:48.159Z,23.98
2023-05-29T14:52:20.726Z,24.07
2023-05-29T14:54:56.041Z,24.12
2023-05-29T14:57:28.432Z,24.19
2023-05-29T15:00:01.114Z,24.25
2023-05-29T15:02:33.879Z,24.34
2023-05-29T15:05:11.307Z,24.43
2023-05-29T15:07:50.788Z,24.50
2023-05-29T15:10:27.949Z,24.54
2023-05-29T15:13:09.653Z,24.50
2023-05-29T15:15:48.585Z,24.52
2023-05-29T15:18:31.449Z,24.50
2023-05-29T15:21:04.541Z,24.49
2023-05-29T15:23:45.110Z,24.45
2023-05-29T15:26:29.167Z,24.45
2023-05-29T15:29:01.452Z,24.43
2023-05-29T15:31:35.500Z,24.40
2023-05-29T15:34:12.535Z,24.40
2023-05-29T15:36:49.577Z,24.39
2023-05-29T15:39:22.223Z,24.38
2023-05-29T15:41:55.385Z,24.29
2023-05-29T15:44:31.766Z,24.17
2023-05-29T15:47:07.621Z,24.08
2023-05-29T15:49:46.022Z,23.96
2023-05-29T15:52:22.541Z,23.87
2023-05-29T15:55:09.064Z,23.81
2023-05-29T15:57:42.688Z,23.72
2023-05-29T16:00:17.043Z,23.63
2023-05-29T16:02:54.364Z,23.60
2023-05-29T16:05:38.163Z,23.60
2023-05-29T16:08:13.505Z,23.61
2023-05-29T16:10:48.611Z,23.59
2023-05-29T16:13:21.702Z,23.55
2023-05-29T16:15:53.649Z,23.48
2023-05-29T16:18:31.861Z,23.42
2023-05-29T16:21:03.830Z,23.36
2023-05-29T16:23:35.990Z,23.31
2023-05-29T16:26:08.375Z,23.25
2023-05-29T16:28:42.578Z,23.18
2023-05-29T16:31:14.807Z,23.09
2023-05-29T16:33:46.851Z,22.99
2023-05-29T16:36:20.050Z,22.89
2023-05-29T16:38:52.284Z,22.79
2023-05-29T16:41:24.208Z,22.67
2023-05-29T16:43:56.397Z,22.54
2023-05-29T16:46:28.644Z,22.43
2023-05-29T16:49:00.528Z,22.36
2023-05-29T16:51:32.310Z,22.27
2023-05-29T16:54:04.251Z,22.22
2023-05-29T16:56:36.300Z,22.15
2023-05-29T16:59:08.294Z,22.09
2023-05-29T17:01:40.480Z,22.02
2023-05-29T17:04:12.567Z,21.94
2023-05-29T17:06:46.709Z,21.86
2023-05-29T17:09:19.159Z,21.76
2023-05-29T17:11:53.491Z,21.68
2023-05-29T17:14:27.652Z,21.60
2023-05-29T17:17:04.016Z,21.52
2023-05-29T17:19:39.821Z,21.45
2023-05-29T17:22:15.835Z,21.38
2023-05-29T17:24:48.226Z,21.30
2023-05-29T17:27:23.225Z,21.22
2023-05-29T17:29:56.071Z,21.13
2023-05-29T17:32:28.062Z,21.06
2023-05-29T17:35:03.960Z,20.99
2023-05-29T17:37:39.189Z,20.91
2023-05-29T17:40:18.694Z,20.84
2023-05-29T17:42:54.753Z,20.76
2023-05-29T17:45:32.809Z,20.67
2023-05-29T17:48:05.442Z,20.57
2023-05-29T17:50:40.142Z,20.48
2023-05-29T17:53:15.247Z,20.38
2023-05-29T17:55:48.231Z,20.29
2023-05-29T17:58:32.021Z,20.20
2023-05-29T18:01:04.864Z,20.08
2023-05-29T18:03:37.842Z,19.96
2023-05-29T18:06:10.574Z,19.82
2023-05-29T18:08:46.126Z,19.67
2023-05-29T18:11:20.988Z,19.52
2023-05-29T18:14:09.090Z,19.38
2023-05-29T18:16:48.310Z,19.22
2023-05-29T18:19:22.023Z,19.07
2023-05-29T18:21:54.415Z,18.93
2023-05-29T18:24:27.567Z,18.76
2023-05-29T18:26:59.519Z,18.60
2023-05-29T18:29:33.497Z,18.46
2023-05-29T18:32:07.276Z,18.29
2023-05-29T18:34:39.988Z,18.05
2023-05-29T18:37:13.311Z,17.87
2023-05-29T18:39:52.516Z,17.72
2023-05-29T18:42:27.691Z,17.59
2023-05-29T18:45:16.056Z,17.48
2023-05-29T18:47:54.312Z,17.37
2023-05-29T18:50:31.081Z,17.27
2023-05-29T18:53:13.804Z,17.16
2023-05-29T18:55:49.587Z,17.06
2023-05-29T18:58:22.307Z,16.97
2023-05-29T19:01:01.936Z,16.87
2023-05-29T19:03:54.920Z,16.76
2023-05-29T19:06:29.915Z,16.62
2023-05-29T19:09:03.676Z,16.50
2023-05-29T19:11:38.442Z,16.39
2023-05-29T19:14:11.878Z,16.30
2023-05-29T19:16:47.435Z,16.17
2023-05-29T19:19:23.722Z,16.02
2023-05-29T19:22:01.580Z,15.90
2023-05-29T19:24:35.951Z,15.79
2023-05-29T19:27:17.774Z,15.66
2023-05-29T19:29:54.136Z,15.56
2023-05-29T19:32:28.380Z,15.45
2023-05-29T19:35:01.012Z,15.33
2023-05-29T19:37:38.993Z,15.23
2023-05-29T19:40:13.795Z,15.15
2023-05-29T19:42:48.834Z,15.09
2023-05-29T19:45:23.633Z,15.01
2023-05-29T19:48:05.039Z,14.94
2023-05-29T19:50:44.734Z,14.89
2023-05-29T19:53:19.694Z,14.85
2023-05-29T19:55:52.461Z,14.79
2023-05-29T19:58:26.063Z,14.71
2023-05-29T20:00:59.534Z,14.59
2023-05-29T20:03:35.307Z,14.44
2023-05-29T20:06:08.670Z,14.32
2023-05-29T20:08:43.765Z,14.25
2023-05-29T20:11:23.049Z,14.27
2023-05-29T20:14:01.404Z,14.32
2023-05-29T20:16:42.215Z,14.34
2023-05-29T20:19:24.160Z,14.33
2023-05-29T20:22:00.144Z,14.31
2023-05-29T20:24:33.015Z,14.30
2023-05-29T20:27:07.491Z,14.28
2023-05-29T20:29:39.757Z,14.24
2023-05-29T20:32:11.917Z,14.19
2023-05-29T20:34:52.822Z,14.13
2023-05-29T20:37:25.290Z,14.12
2023-05-29T20:39:57.274Z,14.12
2023-05-29T20:42:35.253Z,14.05
2023-05-29T20:45:08.858Z,13.96
2023-05-29T20:47:41.282Z,13.92
2023-05-29T20:50:16.887Z,13.85
2023-05-29T20:52:50.088Z,13.76
2023-05-29T20:55:23.307Z,13.69
2023-05-29T20:58:00.557Z,13.67
2023-05-29T21:00:34.429Z,13.65
2023-05-29T21:03:06.844Z,13.63
2023-05-29T21:05:41.725Z,13.60
2023-05-29T21:08:15.958Z,13.59
2023-05-29T21:10:47.745Z,13.56
2023-05-29T21:13:22.375Z,13.48
2023-05-29T21:15:55.200Z,13.41
2023-05-29T21:18:27.110Z,13.35
2023-05-29T21:20:59.114Z,13.32
2023-05-29T21:23:31.268Z,13.28
2023-05-29T21:26:04.467Z,13.23
2023-05-29T21:28:38.160Z,13.21
2023-05-29T21:31:10.161Z,13.20
2023-05-29T21:33:43.300Z,13.18
2023-05-29T21:36:14.921Z,13.10
2023-05-29T21:38:49.316Z,12.99
2023-05-29T21:41:21.219Z,12.88
2023-05-29T21:43:54.111Z,12.79
2023-05-29T21:46:25.805Z,12.71
2023-05-29T21:48:57.535Z,12.69
2023-05-29T21:51:31.244Z,12.66
2023-05-29T21:54:02.957Z,12.64
2023-05-29T21:56:34.566Z,12.61
2023-05-29T21:59:07.082Z,12.55
2023-05-29T22:01:39.068Z,12.46
2023-05-29T22:04:11.271Z,12.41
2023-05-29T22:06:44.033Z,12.38
2023-05-29T22:09:16.105Z,12.34
2023-05-29T22:11:49.362Z,12.27
2023-05-29T22:14:21.499Z,12.17
2023-05-29T22:16:54.910Z,12.05
2023-05-29T22:19:26.778Z,12.01
2023-05-29T22:21:58.350Z,12.04
2023-05-29T22:24:30.028Z,12.05
2023-05-29T22:27:01.846Z,11.99
2023-05-29T22:29:33.397Z,11.93
2023-05-29T22:32:05.824Z,11.95
2023-05-29T22:34:38.328Z,12.00
2023-05-29T22:37:10.345Z,12.04
2023-05-29T22:39:42.325Z,12.07
2023-05-29T22:42:14.267Z,12.08
2023-05-29T22:44:46.027Z,12.09
2023-05-29T22:47:19.085Z,12.11
2023-05-29T22:49:51.021Z,12.13
2023-05-29T22:52:22.891Z,12.11
2023-05-29T22:54:55.345Z,12.07
2023-05-29T22:57:26.978Z,12.04
2023-05-29T22:59:58.578Z,12.02
2023-05-29T23:02:30.700Z,12.02
2023-05-29T23:05:02.785Z,12.04
2023-05-29T23:07:34.902Z,12.04
2023-05-29T23:10:07.121Z,12.05
2023-05-29T23:12:38.984Z,12.08
2023-05-29T23:15:13.709Z,12.12
2023-05-29T23:17:45.678Z,12.17
2023-05-29T23:20:19.798Z,12.21
2023-05-29T23:22:51.558Z,12.25
2023-05-29T23:25:23.191Z,12.29
2023-05-29T23:27:54.825Z,12.32
2023-05-29T23:30:26.486Z,12.33
2023-05-29T23:32:58.120Z,12.35
2023-05-29T23:35:29.756Z,12.34
2023-05-29T23:38:02.039Z,12.35
2023-05-29T23:40:33.557Z,12.38
2023-05-29T23:43:05.215Z,12.42
2023-05-29T23:45:36.776Z,12.47
2023-05-29T23:48:07.088Z,12.49
2023-05-29T23:50:39.393Z,12.51
2023-05-29T23:53:11.569Z,12.53
2023-05-29T23:55:43.284Z,12.57
2023-05-29T23:58:14.838Z,12.62
